ナンディ の空港の天気 - METARとTAF

ナンディ国際空港 ( NFFN / NAN ) - フィジー ナンディ (ビティレブ島)
飛行場実況気象(Metar)
観測時間04/27 16:00 FJT (04/27 04:00 UTC)
風向・風速西 4m/s
視程10km以上
天気現象
全天の4割程度の雲 雲底高度 730m
気温30℃
湿度62%
気圧1008hPa
METARNFFN 270400Z 26008KT 9999 SCT024TCU 30/22 Q1008 NOSIG
過去の天気等 Google飛行場航空写真 Wunderground天気予報

過去48時間のMETAR

飛行場予報(TAF)
発表時間: 4/27 11:21 FJT (4/26 23:21 UTC)
予報対象時間: 27日12時 FJT ~ 28日12時 FJT
風向・風速西南西 5m/s
視程10km以上
全天の4割程度の雲 雲底高度 910m
27日14時 FJT ~ 27日20時 FJT に 確率 40% で一時的に
視程3,000m
天気現象雷雨
全天の8割程度の雲 雲底高度 460m
少しの積乱雲 雲底高度 550m
27日16時 FJT ~ 27日18時 FJT に徐々に
風向・風速東 3m/s
28日10時 FJT ~ 28日12時 FJT に徐々に
風向・風速西 5m/s
TAF NFFN 262321Z 2700/2724 25010KT 9999 SCT030
PROB40 TEMPO 2702/2708 3000 TSRA BKN015 FEW018CB
BECMG 2704/2706 08005KT
BECMG 2722/2724 28010KT